EDQK weather

Kulmbach Airport
Kulmbach, Bavaria, Germany

Public forecast

Using degrees Celsius for public forecast. Weather courtesy of forecast.io.

Closest aviation weather report (METAR) to Kulmbach Airport

Closest report is Hof-Plauen Airport, 17.8 nm (33.0 km) ENE. Retrieved 2020/02/29 06:50 UTC (19 minutes ago):

EDQM 290650Z 21018KT 9999 BKN013 02/01 Q1002

Closest aviation forecast (TAF) to Kulmbach Airport

Forecast is more than 12 hours old.

Closest forecast is Grafenwohr Army Air Field, 32.1 nm (59.5 km) SE. Retrieved 2020/02/28 18:07 UTC (13 hours ago):

TAF ETIC 281800Z 2818/2924 18009KT 9999 BKN015 BKN030 620159 QNH3004INS BECMG 2900/2901 19006KT 5000 -SHSN BKN015 OVC030 610159 QNH2990INS BECMG 2905/2906 19009KT 8000 -RASN BKN015 OVC030 620406 QNH2972INS BECMG 2913/2914 17009KT 9999 NSW BKN040 620505 QNH2951INS BECMG 2918/2919 19012G18KT 8000 -SHRA SCT015 BKN030 610406 510307 QNH2951INS TX08/2915Z TNM02/2818Z LAST NO AMDS AFT 2822 NEXT 0202